createdAt,value
2018-05-23T00:00:20.216Z,20.50
2018-05-23T00:01:20.386Z,20.38
2018-05-23T00:02:20.552Z,20.54
2018-05-23T00:03:20.722Z,20.50
2018-05-23T00:04:20.892Z,20.42
2018-05-23T00:05:21.064Z,20.33
2018-05-23T00:06:21.239Z,20.38
2018-05-23T00:07:21.408Z,20.43
2018-05-23T00:08:21.575Z,20.50
2018-05-23T00:09:21.745Z,20.52
2018-05-23T00:10:21.918Z,20.52
2018-05-23T00:11:22.089Z,20.51
2018-05-23T00:12:22.259Z,20.54
2018-05-23T00:13:22.439Z,20.55
2018-05-23T00:14:22.615Z,20.58
2018-05-23T00:15:22.785Z,20.61
2018-05-23T00:16:22.955Z,20.43
2018-05-23T00:17:23.116Z,20.51
2018-05-23T00:18:23.285Z,20.59
2018-05-23T00:19:23.457Z,20.61
2018-05-23T00:20:23.631Z,20.64
2018-05-23T00:21:23.798Z,20.61
2018-05-23T00:22:23.975Z,20.57
2018-05-23T00:23:24.136Z,20.58
2018-05-23T00:24:24.311Z,20.64
2018-05-23T00:25:24.481Z,20.59
2018-05-23T00:26:24.832Z,20.58
2018-05-23T00:27:24.879Z,20.58
2018-05-23T00:28:25.048Z,20.62
2018-05-23T00:29:25.220Z,20.59
2018-05-23T00:30:25.389Z,20.67
2018-05-23T00:31:25.557Z,20.57
2018-05-23T00:32:28.344Z,20.59
2018-05-23T00:33:25.888Z,20.57
2018-05-23T00:34:26.117Z,20.64
2018-05-23T00:35:26.292Z,20.62
2018-05-23T00:36:26.462Z,20.55
2018-05-23T00:37:26.633Z,20.55
2018-05-23T00:38:27.347Z,20.57
2018-05-23T00:39:27.016Z,20.48
2018-05-23T00:40:27.200Z,20.55
2018-05-23T00:41:27.365Z,20.42
2018-05-23T00:42:27.538Z,20.50
2018-05-23T00:43:28.275Z,20.43
2018-05-23T00:44:27.865Z,20.41
2018-05-23T00:45:28.035Z,20.47
2018-05-23T00:46:28.205Z,20.55
2018-05-23T00:47:28.373Z,20.42
2018-05-23T00:48:28.543Z,20.41
2018-05-23T00:49:28.721Z,20.42
2018-05-23T00:50:28.888Z,20.42
2018-05-23T00:51:29.057Z,20.47
2018-05-23T00:52:29.222Z,20.39
2018-05-23T00:53:29.397Z,20.50
2018-05-23T00:54:29.567Z,20.50
2018-05-23T00:55:29.738Z,20.41
2018-05-23T00:56:29.905Z,20.48
2018-05-23T00:57:30.080Z,20.48
2018-05-23T00:58:30.257Z,20.50
2018-05-23T00:59:30.425Z,20.55
2018-05-23T01:00:30.597Z,20.55
2018-05-23T01:01:30.779Z,20.55
2018-05-23T01:02:30.935Z,20.59
2018-05-23T01:03:31.099Z,20.61
2018-05-23T01:04:31.275Z,20.73
2018-05-23T01:05:31.449Z,20.73
2018-05-23T01:06:31.618Z,20.72
2018-05-23T01:07:31.787Z,20.67
2018-05-23T01:08:31.954Z,20.59
2018-05-23T01:09:32.296Z,20.59
2018-05-23T01:10:32.339Z,20.61
2018-05-23T01:11:32.508Z,20.50
2018-05-23T01:12:32.684Z,20.55
2018-05-23T01:13:32.854Z,20.54
2018-05-23T01:14:33.019Z,20.48
2018-05-23T01:15:33.193Z,20.51
2018-05-23T01:16:33.366Z,20.47
2018-05-23T01:17:33.537Z,20.38
2018-05-23T01:18:33.708Z,20.39
2018-05-23T01:19:33.877Z,20.39
2018-05-23T01:20:34.049Z,20.26
2018-05-23T01:21:34.862Z,20.21
2018-05-23T01:22:34.403Z,20.33
2018-05-23T01:23:35.362Z,20.35
2018-05-23T01:24:34.777Z,20.32
2018-05-23T01:25:34.949Z,20.35
2018-05-23T01:26:35.119Z,20.29
2018-05-23T01:27:35.298Z,20.26
2018-05-23T01:28:35.460Z,20.35
2018-05-23T01:29:35.638Z,20.32
2018-05-23T01:30:35.816Z,20.29
2018-05-23T01:31:35.986Z,20.32
2018-05-23T01:32:36.157Z,20.32
2018-05-23T01:33:36.329Z,20.20
2018-05-23T01:34:36.499Z,20.23
2018-05-23T01:35:36.665Z,20.28
2018-05-23T01:36:36.837Z,20.32
2018-05-23T01:37:37.861Z,20.33
2018-05-23T01:38:37.162Z,20.39
2018-05-23T01:39:37.314Z,20.38
2018-05-23T01:40:37.490Z,20.36
2018-05-23T01:41:38.359Z,20.32
2018-05-23T01:42:37.781Z,20.32
2018-05-23T01:43:37.949Z,20.28
2018-05-23T01:44:38.114Z,20.33
2018-05-23T01:45:38.865Z,20.31
2018-05-23T01:46:39.359Z,20.36
2018-05-23T01:47:38.528Z,20.35
2018-05-23T01:48:38.694Z,20.38
2018-05-23T01:49:38.865Z,20.36
2018-05-23T01:50:39.030Z,20.35
2018-05-23T01:51:39.205Z,20.42
2018-05-23T01:52:39.378Z,20.51
2018-05-23T01:53:39.551Z,20.39
2018-05-23T01:54:39.724Z,20.39
2018-05-23T01:55:40.862Z,20.35
2018-05-23T01:56:40.026Z,20.35
2018-05-23T01:57:40.197Z,20.23
2018-05-23T01:58:40.372Z,20.31
2018-05-23T01:59:40.537Z,20.24
2018-05-23T02:00:40.708Z,20.31
2018-05-23T02:01:40.878Z,20.31
2018-05-23T02:02:41.047Z,20.33
2018-05-23T02:03:41.217Z,20.38
2018-05-23T02:04:41.395Z,20.48
2018-05-23T02:05:41.568Z,20.54
2018-05-23T02:06:41.735Z,20.48
2018-05-23T02:07:41.903Z,20.52
2018-05-23T02:08:42.066Z,20.38
2018-05-23T02:09:42.240Z,20.43
2018-05-23T02:10:42.409Z,20.36
2018-05-23T02:11:42.580Z,20.41
2018-05-23T02:12:42.754Z,20.39
2018-05-23T02:13:42.928Z,20.35
2018-05-23T02:14:43.099Z,20.48
2018-05-23T02:15:43.272Z,20.47
2018-05-23T02:16:43.464Z,20.48
2018-05-23T02:17:44.368Z,20.55
2018-05-23T02:18:43.795Z,20.42
2018-05-23T02:19:43.960Z,20.50
2018-05-23T02:20:44.129Z,20.50
2018-05-23T02:21:44.306Z,20.51
2018-05-23T02:22:44.472Z,20.42
2018-05-23T02:23:44.650Z,20.50
2018-05-23T02:24:44.817Z,20.52
2018-05-23T02:25:44.986Z,20.59
2018-05-23T02:26:45.154Z,20.61
2018-05-23T02:27:45.316Z,20.54
2018-05-23T02:28:45.508Z,20.54
2018-05-23T02:29:45.681Z,20.51
2018-05-23T02:30:45.848Z,20.52
2018-05-23T02:31:46.018Z,20.52
2018-05-23T02:32:46.441Z,20.58
2018-05-23T02:33:47.302Z,20.55
2018-05-23T02:34:46.880Z,20.58
2018-05-23T02:35:47.028Z,20.55
2018-05-23T02:36:47.767Z,20.52
2018-05-23T02:37:47.454Z,20.54
2018-05-23T02:38:47.477Z,20.55
2018-05-23T02:39:47.647Z,20.57
2018-05-23T02:40:47.783Z,20.54
2018-05-23T02:41:47.997Z,20.42
2018-05-23T02:42:47.739Z,20.47
2018-05-23T02:43:47.914Z,20.43
2018-05-23T02:44:48.082Z,20.42
2018-05-23T02:45:48.253Z,20.52
2018-05-23T02:46:48.420Z,20.41
2018-05-23T02:47:48.590Z,20.59
2018-05-23T02:48:48.755Z,20.43
2018-05-23T02:49:48.921Z,20.51
2018-05-23T02:50:49.875Z,20.57
2018-05-23T02:51:49.311Z,20.58
2018-05-23T02:52:49.478Z,20.55
2018-05-23T02:53:49.656Z,20.61
2018-05-23T02:54:50.381Z,20.54
2018-05-23T02:55:50.038Z,20.54
2018-05-23T02:56:50.200Z,20.58
2018-05-23T02:57:50.393Z,20.58
2018-05-23T02:58:50.539Z,20.59
2018-05-23T02:59:50.712Z,20.61
2018-05-23T03:00:51.387Z,20.54
2018-05-23T03:01:51.049Z,20.51
2018-05-23T03:02:51.321Z,20.55
2018-05-23T03:03:51.399Z,20.52
2018-05-23T03:04:51.564Z,20.50
2018-05-23T03:05:51.733Z,20.48
2018-05-23T03:06:51.911Z,20.62
2018-05-23T03:07:54.878Z,20.51
2018-05-23T03:08:52.299Z,20.52
2018-05-23T03:09:52.473Z,20.58
2018-05-23T03:10:52.638Z,20.64
2018-05-23T03:11:52.809Z,20.67
2018-05-23T03:12:52.987Z,20.57
2018-05-23T03:13:53.149Z,20.57
2018-05-23T03:14:53.319Z,20.58
2018-05-23T03:15:53.489Z,20.55
2018-05-23T03:16:53.661Z,20.58
2018-05-23T03:17:53.829Z,20.55
2018-05-23T03:18:54.001Z,20.54
2018-05-23T03:19:54.887Z,20.57
2018-05-23T03:20:54.308Z,20.51
2018-05-23T03:21:54.479Z,20.54
2018-05-23T03:22:55.379Z,20.50
2018-05-23T03:23:54.813Z,20.54
2018-05-23T03:24:54.981Z,20.48
2018-05-23T03:25:55.352Z,20.54
2018-05-23T03:26:55.269Z,20.54
2018-05-23T03:27:55.449Z,20.41
2018-05-23T03:28:55.785Z,20.48
2018-05-23T03:29:56.387Z,20.51
2018-05-23T03:30:56.055Z,20.41
2018-05-23T03:31:56.884Z,20.52
2018-05-23T03:32:56.426Z,20.54
2018-05-23T03:33:56.598Z,20.54
2018-05-23T03:34:58.406Z,20.55
2018-05-23T03:35:56.925Z,20.54
2018-05-23T03:36:57.099Z,20.52
2018-05-23T03:37:57.272Z,20.51
2018-05-23T03:38:57.440Z,20.58
2018-05-23T03:39:57.607Z,20.54
2018-05-23T03:40:57.781Z,20.54
2018-05-23T03:41:58.124Z,20.61
2018-05-23T03:42:58.169Z,20.54
2018-05-23T03:43:58.342Z,20.61
2018-05-23T03:44:58.519Z,20.61
2018-05-23T03:45:58.693Z,20.58
2018-05-23T03:46:58.858Z,20.57
2018-05-23T03:47:59.880Z,20.55
2018-05-23T03:48:59.891Z,20.67
2018-05-23T03:49:59.307Z,20.67
2018-05-23T03:50:59.484Z,20.66
2018-05-23T03:51:59.647Z,20.73
2018-05-23T03:52:59.817Z,20.73
2018-05-23T03:54:00.890Z,20.79
2018-05-23T03:55:00.187Z,20.85
2018-05-23T03:56:00.352Z,20.77
2018-05-23T03:57:00.528Z,20.82
2018-05-23T03:58:01.388Z,20.79
2018-05-23T03:59:00.807Z,20.77
2018-05-23T04:00:00.978Z,20.69
2018-05-23T04:01:01.148Z,20.79
2018-05-23T04:02:01.343Z,20.84
2018-05-23T04:03:01.504Z,20.79
2018-05-23T04:04:01.674Z,20.82
2018-05-23T04:05:01.844Z,20.91
2018-05-23T04:06:02.015Z,20.95
2018-05-23T04:07:02.196Z,21.04
2018-05-23T04:08:02.370Z,21.07
2018-05-23T04:09:02.528Z,21.16
2018-05-23T04:10:02.708Z,21.16
2018-05-23T04:11:02.874Z,21.10
2018-05-23T04:12:03.045Z,21.10
2018-05-23T04:13:03.218Z,21.13
2018-05-23T04:14:03.388Z,21.21
2018-05-23T04:15:03.563Z,21.16
2018-05-23T04:16:03.886Z,21.22
2018-05-23T04:17:04.892Z,21.24
2018-05-23T04:18:04.063Z,21.31
2018-05-23T04:19:04.238Z,21.27
2018-05-23T04:20:04.413Z,21.25
2018-05-23T04:21:04.747Z,21.24
2018-05-23T04:22:09.395Z,21.25
2018-05-23T04:23:04.942Z,21.34
2018-05-23T04:24:05.151Z,21.21
2018-05-23T04:25:05.287Z,21.34
2018-05-23T04:26:05.461Z,21.35
2018-05-23T04:27:05.632Z,21.46
2018-05-23T04:28:05.803Z,21.43
2018-05-23T04:29:05.980Z,21.53
2018-05-23T04:30:06.152Z,21.49
2018-05-23T04:31:07.894Z,21.49
2018-05-23T04:32:07.396Z,21.64
2018-05-23T04:33:06.680Z,21.67
2018-05-23T04:34:07.397Z,21.62
2018-05-23T04:35:06.950Z,21.71
2018-05-23T04:36:07.121Z,21.61
2018-05-23T04:37:07.289Z,21.56
2018-05-23T04:38:08.399Z,21.58
2018-05-23T04:39:08.397Z,21.54
2018-05-23T04:40:07.688Z,21.61
2018-05-23T04:41:07.867Z,21.64
2018-05-23T04:42:08.165Z,21.67
2018-05-23T04:43:08.213Z,21.64
2018-05-23T04:44:08.406Z,21.65
2018-05-23T04:45:08.582Z,21.64
2018-05-23T04:46:09.401Z,21.58
2018-05-23T04:47:08.946Z,21.65
2018-05-23T04:48:09.112Z,21.59
2018-05-23T04:49:09.296Z,21.46
2018-05-23T04:50:09.467Z,21.46
2018-05-23T04:51:10.408Z,21.50
2018-05-23T04:52:09.776Z,21.58
2018-05-23T04:53:09.952Z,21.59
2018-05-23T04:54:10.121Z,21.58
2018-05-23T04:55:10.285Z,21.49
2018-05-23T04:56:11.398Z,21.46
2018-05-23T04:57:11.396Z,21.49
2018-05-23T04:58:10.686Z,21.67
2018-05-23T04:59:10.854Z,21.59
2018-05-23T05:00:11.900Z,21.65
2018-05-23T05:01:11.199Z,21.79
2018-05-23T05:02:11.365Z,21.74
2018-05-23T05:03:11.533Z,21.83
2018-05-23T05:04:11.709Z,21.83
2018-05-23T05:05:11.892Z,21.67
2018-05-23T05:06:12.063Z,21.68
2018-05-23T05:07:12.235Z,21.68
2018-05-23T05:08:12.400Z,21.82
2018-05-23T05:09:12.574Z,21.84
2018-05-23T05:10:12.869Z,21.84
2018-05-23T05:11:13.905Z,21.84
2018-05-23T05:12:13.080Z,21.84
2018-05-23T05:13:13.252Z,21.92
2018-05-23T05:14:13.419Z,21.90
2018-05-23T05:15:13.587Z,22.02
2018-05-23T05:16:13.758Z,22.02
2018-05-23T05:17:13.931Z,22.02
2018-05-23T05:18:14.101Z,22.02
2018-05-23T05:19:14.272Z,21.99
2018-05-23T05:20:15.403Z,21.88
2018-05-23T05:21:14.579Z,21.94
2018-05-23T05:22:14.747Z,21.86
2018-05-23T05:23:14.924Z,21.99
2018-05-23T05:24:15.093Z,21.94
2018-05-23T05:25:15.906Z,22.00
2018-05-23T05:26:15.456Z,21.88
2018-05-23T05:27:15.629Z,21.84
2018-05-23T05:28:15.807Z,21.80
2018-05-23T05:29:15.977Z,21.82
2018-05-23T05:30:16.171Z,21.79
2018-05-23T05:31:16.341Z,21.90
2018-05-23T05:32:16.515Z,21.86
2018-05-23T05:33:16.689Z,21.83
2018-05-23T05:34:16.850Z,21.80
2018-05-23T05:35:17.019Z,21.79
2018-05-23T05:36:17.914Z,21.79
2018-05-23T05:37:17.329Z,21.80
2018-05-23T05:38:17.500Z,21.84
2018-05-23T05:39:17.671Z,21.79
2018-05-23T05:40:17.839Z,21.86
2018-05-23T05:41:18.008Z,21.84
2018-05-23T05:42:18.171Z,21.86
2018-05-23T05:43:18.344Z,21.91
2018-05-23T05:44:18.514Z,21.83
2018-05-23T05:45:18.683Z,21.90
2018-05-23T05:46:18.854Z,21.83
2018-05-23T05:47:19.025Z,21.91
2018-05-23T05:48:19.199Z,21.86
2018-05-23T05:49:19.487Z,21.88
2018-05-23T05:50:19.532Z,21.90
2018-05-23T05:51:19.701Z,21.84
2018-05-23T05:52:19.876Z,21.77
2018-05-23T05:53:20.046Z,21.84
2018-05-23T05:54:20.218Z,21.83
2018-05-23T05:55:20.393Z,21.98
2018-05-23T05:56:20.560Z,22.06
2018-05-23T05:57:20.727Z,22.03
2018-05-23T05:58:20.898Z,22.09
2018-05-23T05:59:21.068Z,22.09
2018-05-23T06:00:21.238Z,22.09
2018-05-23T06:01:21.417Z,22.02
2018-05-23T06:02:21.578Z,22.02
2018-05-23T06:03:21.752Z,22.14
2018-05-23T06:04:21.919Z,22.17
2018-05-23T06:05:22.091Z,22.05
2018-05-23T06:06:22.262Z,22.17
2018-05-23T06:07:22.431Z,22.25
2018-05-23T06:08:22.608Z,22.36
2018-05-23T06:09:22.838Z,22.36
2018-05-23T06:10:22.946Z,22.40
2018-05-23T06:11:23.119Z,22.36
2018-05-23T06:12:23.289Z,22.35
2018-05-23T06:13:23.461Z,22.40
2018-05-23T06:14:23.636Z,22.45
2018-05-23T06:15:23.810Z,22.49
2018-05-23T06:16:23.992Z,22.49
2018-05-23T06:17:24.156Z,22.49
2018-05-23T06:18:24.329Z,22.52
2018-05-23T06:19:24.501Z,22.49
2018-05-23T06:20:24.677Z,22.52
2018-05-23T06:21:24.849Z,22.57
2018-05-23T06:22:25.089Z,22.64
2018-05-23T06:23:25.197Z,22.61
2018-05-23T06:24:25.367Z,22.86
2018-05-23T06:25:25.540Z,22.86
2018-05-23T06:26:25.711Z,22.91
2018-05-23T06:27:25.895Z,23.09
2018-05-23T06:28:26.059Z,23.00
2018-05-23T06:29:26.232Z,23.09
2018-05-23T06:30:26.504Z,23.19
2018-05-23T06:31:26.569Z,23.33
2018-05-23T06:32:26.749Z,23.31
2018-05-23T06:33:26.923Z,23.42
2018-05-23T06:34:27.102Z,23.50
2018-05-23T06:35:27.269Z,23.50
2018-05-23T06:36:27.441Z,23.48
2018-05-23T06:37:27.623Z,23.73
2018-05-23T06:38:27.788Z,23.75
2018-05-23T06:39:27.961Z,23.87
2018-05-23T06:40:28.136Z,23.91
2018-05-23T06:41:28.311Z,23.94
2018-05-23T06:42:28.479Z,23.97
2018-05-23T06:43:28.672Z,24.03
2018-05-23T06:44:28.833Z,24.13
2018-05-23T06:45:29.011Z,24.12
2018-05-23T06:46:29.180Z,24.35
2018-05-23T06:47:29.346Z,24.27
2018-05-23T06:48:29.518Z,24.28
2018-05-23T06:49:29.699Z,24.25
2018-05-23T06:50:29.873Z,24.25
2018-05-23T06:51:30.049Z,24.31
2018-05-23T06:52:30.224Z,24.37
2018-05-23T06:53:30.395Z,24.52
2018-05-23T06:54:30.575Z,24.62
2018-05-23T06:55:30.742Z,24.69
2018-05-23T06:56:30.915Z,24.85
2018-05-23T06:57:31.087Z,24.96
2018-05-23T06:58:31.258Z,25.05
2018-05-23T06:59:31.427Z,25.13
2018-05-23T07:00:31.610Z,25.23
2018-05-23T07:01:31.783Z,25.14
2018-05-23T07:02:31.959Z,25.27
2018-05-23T07:03:32.136Z,25.33
2018-05-23T07:04:32.305Z,25.28
2018-05-23T07:05:32.476Z,25.02
2018-05-23T07:06:32.649Z,24.93
2018-05-23T07:07:32.818Z,24.80
2018-05-23T07:08:32.998Z,24.84
2018-05-23T07:09:33.168Z,24.77
2018-05-23T07:10:33.360Z,24.67
2018-05-23T07:11:33.522Z,24.64
2018-05-23T07:12:33.692Z,24.81
2018-05-23T07:13:33.888Z,24.73
2018-05-23T07:14:34.039Z,24.73
2018-05-23T07:15:34.216Z,24.78
2018-05-23T07:16:34.398Z,24.88
2018-05-23T07:17:34.567Z,24.77
2018-05-23T07:18:34.741Z,24.78
2018-05-23T07:19:34.917Z,24.64
2018-05-23T07:20:35.092Z,24.67
2018-05-23T07:21:35.274Z,24.61
2018-05-23T07:22:35.442Z,24.81
2018-05-23T07:23:35.610Z,24.76
2018-05-23T07:24:35.789Z,24.96
2018-05-23T07:25:35.964Z,24.99
2018-05-23T07:26:36.141Z,24.99
2018-05-23T07:27:36.307Z,25.05
2018-05-23T07:28:36.484Z,25.15
2018-05-23T07:29:36.659Z,25.13
2018-05-23T07:30:36.833Z,25.14
2018-05-23T07:31:37.023Z,25.17
2018-05-23T07:32:37.181Z,25.20
2018-05-23T07:33:37.360Z,25.32
2018-05-23T07:34:37.530Z,25.50
2018-05-23T07:35:37.700Z,25.52
2018-05-23T07:36:37.873Z,25.58
2018-05-23T07:37:38.050Z,25.69
2018-05-23T07:38:38.225Z,25.87
2018-05-23T07:39:38.400Z,26.01
2018-05-23T07:40:38.573Z,26.21
2018-05-23T07:41:38.748Z,26.30
2018-05-23T07:42:38.914Z,26.50
2018-05-23T07:43:39.095Z,26.58
2018-05-23T07:44:39.260Z,26.55
2018-05-23T07:45:39.443Z,26.75
2018-05-23T07:46:39.630Z,26.63
2018-05-23T07:47:39.810Z,26.84
2018-05-23T07:48:39.990Z,26.73
2018-05-23T07:49:40.159Z,26.72
2018-05-23T07:50:40.331Z,26.76
2018-05-23T07:51:40.505Z,26.75
2018-05-23T07:52:40.682Z,26.63
2018-05-23T07:53:40.985Z,26.48
2018-05-23T07:54:41.033Z,26.66
2018-05-23T07:55:41.201Z,26.55
2018-05-23T07:56:41.402Z,26.60
2018-05-23T07:57:41.568Z,26.44
2018-05-23T07:58:41.750Z,26.39
2018-05-23T07:59:41.916Z,26.43
2018-05-23T08:00:42.088Z,26.37
2018-05-23T08:01:42.275Z,26.26
2018-05-23T08:02:43.449Z,26.57
2018-05-23T08:03:42.618Z,26.81
2018-05-23T08:04:42.810Z,27.06
2018-05-23T08:05:43.946Z,27.07
2018-05-23T08:06:43.118Z,27.32
2018-05-23T08:07:43.310Z,26.99
2018-05-23T08:08:43.473Z,27.07
2018-05-23T08:09:44.462Z,27.19
2018-05-23T08:10:43.883Z,27.29
2018-05-23T08:11:44.061Z,27.21
2018-05-23T08:12:44.232Z,27.41
2018-05-23T08:13:44.421Z,27.50
2018-05-23T08:14:44.584Z,27.62
2018-05-23T08:15:44.756Z,27.67
2018-05-23T08:16:44.930Z,27.85
2018-05-23T08:17:45.108Z,27.79
2018-05-23T08:18:45.287Z,27.70
2018-05-23T08:19:45.464Z,27.66
2018-05-23T08:20:45.639Z,27.54
2018-05-23T08:21:45.816Z,27.66
2018-05-23T08:22:45.989Z,27.69
2018-05-23T08:23:46.162Z,27.70
2018-05-23T08:24:46.342Z,27.67
2018-05-23T08:25:46.521Z,27.75
2018-05-23T08:26:46.767Z,27.81
2018-05-23T08:27:46.874Z,27.94
2018-05-23T08:28:47.056Z,27.99
2018-05-23T08:29:47.255Z,28.00
2018-05-23T08:30:47.410Z,28.18
2018-05-23T08:31:47.588Z,28.46
2018-05-23T08:32:47.763Z,28.27
2018-05-23T08:33:47.938Z,28.33
2018-05-23T08:34:48.117Z,28.52
2018-05-23T08:35:48.300Z,28.62
2018-05-23T08:36:48.469Z,28.73
2018-05-23T08:37:48.669Z,28.88
2018-05-23T08:38:48.816Z,28.89
2018-05-23T08:39:48.995Z,29.11
2018-05-23T08:40:49.179Z,29.19
2018-05-23T08:41:49.362Z,29.28
2018-05-23T08:42:49.530Z,29.34
2018-05-23T08:43:49.723Z,29.36
2018-05-23T08:44:49.903Z,29.37
2018-05-23T08:45:50.081Z,29.58
2018-05-23T08:46:50.254Z,29.78
2018-05-23T08:47:50.438Z,29.97
2018-05-23T08:48:50.624Z,30.04
2018-05-23T08:49:50.799Z,29.97
2018-05-23T08:50:50.979Z,29.92
2018-05-23T08:51:51.158Z,30.00
2018-05-23T08:52:51.328Z,30.10
2018-05-23T08:53:51.508Z,30.27
2018-05-23T08:54:51.689Z,30.20
2018-05-23T08:55:51.870Z,30.24
2018-05-23T08:56:52.049Z,30.16
2018-05-23T08:57:52.227Z,30.31
2018-05-23T08:58:52.409Z,30.29
2018-05-23T08:59:52.579Z,30.11
2018-05-23T09:00:52.756Z,30.05
2018-05-23T09:01:52.937Z,30.00
2018-05-23T09:02:53.112Z,29.87
2018-05-23T09:03:53.297Z,29.86
2018-05-23T09:04:53.482Z,29.70
2018-05-23T09:05:53.644Z,29.37
2018-05-23T09:06:53.827Z,29.34
2018-05-23T09:07:54.000Z,29.23
2018-05-23T09:08:54.189Z,28.86
2018-05-23T09:09:54.366Z,28.90
2018-05-23T09:10:54.537Z,29.06
2018-05-23T09:11:54.725Z,29.05
2018-05-23T09:12:54.896Z,29.16
2018-05-23T09:13:55.080Z,29.21
2018-05-23T09:14:55.255Z,29.11
2018-05-23T09:15:55.436Z,28.96
2018-05-23T09:16:55.626Z,29.02
2018-05-23T09:17:55.799Z,29.11
2018-05-23T09:18:55.976Z,29.08
2018-05-23T09:19:56.881Z,29.27
2018-05-23T09:20:56.326Z,29.57
2018-05-23T09:21:56.512Z,29.70
2018-05-23T09:22:56.690Z,29.65
2018-05-23T09:23:56.874Z,29.65
2018-05-23T09:24:57.052Z,29.73
2018-05-23T09:25:57.230Z,29.89
2018-05-23T09:26:57.412Z,29.98
2018-05-23T09:27:57.588Z,30.13
2018-05-23T09:28:57.767Z,29.83
2018-05-23T09:29:57.942Z,29.90
2018-05-23T09:30:58.118Z,30.11
2018-05-23T09:31:58.324Z,30.26
2018-05-23T09:32:58.505Z,30.34
2018-05-23T09:33:58.680Z,30.60
2018-05-23T09:34:58.859Z,31.23
2018-05-23T09:35:59.049Z,31.61
2018-05-23T09:36:59.222Z,31.88
2018-05-23T09:37:59.410Z,31.92
2018-05-23T09:38:59.593Z,31.85
2018-05-23T09:39:59.946Z,31.81
2018-05-23T09:40:59.951Z,31.95
2018-05-23T09:42:00.129Z,32.01
2018-05-23T09:43:00.307Z,32.04
2018-05-23T09:44:00.484Z,32.10
2018-05-23T09:45:00.680Z,32.13
2018-05-23T09:46:00.860Z,32.25
2018-05-23T09:47:01.059Z,31.95
2018-05-23T09:48:01.276Z,31.73
2018-05-23T09:49:01.440Z,31.46
2018-05-23T09:50:01.617Z,31.28
2018-05-23T09:51:01.796Z,31.26
2018-05-23T09:52:01.978Z,31.16
2018-05-23T09:53:02.974Z,31.04
2018-05-23T09:54:02.276Z,30.88
2018-05-23T09:55:02.509Z,30.55
2018-05-23T09:56:02.638Z,30.67
2018-05-23T09:57:02.819Z,30.61
2018-05-23T09:58:03.018Z,30.64
2018-05-23T09:59:03.163Z,30.55
2018-05-23T10:00:03.336Z,30.54
2018-05-23T10:01:03.510Z,30.42
2018-05-23T10:02:03.688Z,30.16
2018-05-23T10:03:03.870Z,30.29
2018-05-23T10:04:04.096Z,30.49
2018-05-23T10:05:04.254Z,30.64
2018-05-23T10:06:04.443Z,30.97
2018-05-23T10:07:04.628Z,31.09
2018-05-23T10:08:04.810Z,31.06
2018-05-23T10:09:04.981Z,31.46
2018-05-23T10:10:05.162Z,31.26
2018-05-23T10:11:05.363Z,31.65
2018-05-23T10:12:05.531Z,32.30
2018-05-23T10:13:05.716Z,32.70
2018-05-23T10:14:05.896Z,32.85
2018-05-23T10:15:06.068Z,32.75
2018-05-23T10:16:06.256Z,32.55
2018-05-23T10:17:06.435Z,32.89
2018-05-23T10:18:06.617Z,32.63
2018-05-23T10:19:06.800Z,32.52
2018-05-23T10:20:06.988Z,32.56
2018-05-23T10:21:07.162Z,32.74
2018-05-23T10:22:07.340Z,32.75
2018-05-23T10:23:07.526Z,32.77
2018-05-23T10:24:07.710Z,32.48
2018-05-23T10:25:07.958Z,32.69
2018-05-23T10:26:08.074Z,32.93
2018-05-23T10:27:08.304Z,33.18
2018-05-23T10:28:08.421Z,33.23
2018-05-23T10:29:08.603Z,33.54
2018-05-23T10:30:08.778Z,33.45
2018-05-23T10:31:08.960Z,33.45
2018-05-23T10:32:09.146Z,33.42
2018-05-23T10:33:09.327Z,33.38
2018-05-23T10:34:09.512Z,33.14
2018-05-23T10:35:09.686Z,33.31
2018-05-23T10:36:10.404Z,33.00
2018-05-23T10:37:10.063Z,33.66
2018-05-23T10:38:10.240Z,33.31
2018-05-23T10:39:10.476Z,33.57
2018-05-23T10:40:10.600Z,33.78
2018-05-23T10:41:10.780Z,34.19
2018-05-23T10:42:10.963Z,34.08
2018-05-23T10:43:11.148Z,34.54
2018-05-23T10:44:11.991Z,34.77
2018-05-23T10:45:11.551Z,35.68
2018-05-23T10:46:11.742Z,36.57
2018-05-23T10:47:11.889Z,37.10
2018-05-23T10:48:12.093Z,37.25
2018-05-23T10:49:12.253Z,37.97
2018-05-23T10:50:12.427Z,38.01
2018-05-23T10:51:12.601Z,38.11
2018-05-23T10:52:12.790Z,38.54
2018-05-23T10:53:12.992Z,38.88
2018-05-23T10:54:13.180Z,38.71
2018-05-23T10:55:13.359Z,39.04
2018-05-23T10:56:13.574Z,39.44
2018-05-23T10:57:13.807Z,38.91
2018-05-23T10:58:13.903Z,38.42
2018-05-23T10:59:14.103Z,38.69
2018-05-23T11:00:14.369Z,38.19
2018-05-23T11:01:14.518Z,37.55
2018-05-23T11:02:14.730Z,36.72
2018-05-23T11:03:14.987Z,36.50
2018-05-23T11:04:15.097Z,36.07
2018-05-23T11:05:15.276Z,36.08
2018-05-23T11:06:15.484Z,36.17
2018-05-23T11:07:15.654Z,36.03
2018-05-23T11:08:15.851Z,36.50
2018-05-23T11:09:16.025Z,36.76
2018-05-23T11:10:16.231Z,36.72
2018-05-23T11:11:16.388Z,36.73
2018-05-23T11:12:16.562Z,36.75
2018-05-23T11:13:16.778Z,36.44
2018-05-23T11:14:16.973Z,37.24
2018-05-23T11:15:17.202Z,37.89
2018-05-23T11:16:17.334Z,37.63
2018-05-23T11:17:17.546Z,37.40
2018-05-23T11:18:17.711Z,37.32
2018-05-23T11:19:17.880Z,37.46
2018-05-23T11:20:18.079Z,37.89
2018-05-23T11:21:18.254Z,37.81
2018-05-23T11:22:18.432Z,38.03
2018-05-23T11:23:18.634Z,37.93
2018-05-23T11:24:18.809Z,38.15
2018-05-23T11:25:19.003Z,38.69
2018-05-23T11:26:19.203Z,38.86
2018-05-23T11:27:19.381Z,39.36
2018-05-23T11:28:19.568Z,39.66
2018-05-23T11:29:19.743Z,39.67
2018-05-23T11:30:19.955Z,39.29
2018-05-23T11:31:21.203Z,39.13
2018-05-23T11:32:20.295Z,39.11
2018-05-23T11:33:20.485Z,38.93
2018-05-23T11:34:20.684Z,39.32
2018-05-23T11:35:20.901Z,39.45
2018-05-23T11:36:21.043Z,39.60
2018-05-23T11:37:21.240Z,38.98
2018-05-23T11:38:21.432Z,39.16
2018-05-23T11:39:21.641Z,39.81
2018-05-23T11:40:21.990Z,39.94
2018-05-23T11:41:22.056Z,40.74
2018-05-23T11:42:22.327Z,40.60
2018-05-23T11:43:22.655Z,40.34
2018-05-23T11:44:23.213Z,40.18
2018-05-23T11:45:23.214Z,40.55
2018-05-23T11:46:24.552Z,41.04
2018-05-23T11:47:24.598Z,41.25
2018-05-23T11:48:24.112Z,40.60
2018-05-23T11:49:24.425Z,41.52
2018-05-23T11:50:25.143Z,41.96
2018-05-23T11:51:24.180Z,42.01
2018-05-23T11:52:24.643Z,42.87
2018-05-23T11:53:24.577Z,43.23
2018-05-23T11:54:24.533Z,43.61
2018-05-23T11:55:24.975Z,43.35
2018-05-23T11:56:24.949Z,43.91
2018-05-23T11:57:25.174Z,44.24
2018-05-23T11:58:25.142Z,44.51
2018-05-23T11:59:25.346Z,44.82
2018-05-23T12:00:25.524Z,45.02
2018-05-23T12:01:25.720Z,45.07
2018-05-23T12:02:25.909Z,45.00
2018-05-23T12:03:26.131Z,45.01
2018-05-23T12:04:26.285Z,44.24
2018-05-23T12:05:26.488Z,44.22
2018-05-23T12:06:26.683Z,44.48
2018-05-23T12:07:26.889Z,44.60
2018-05-23T12:08:27.084Z,44.02
2018-05-23T12:09:27.274Z,44.46
2018-05-23T12:10:27.508Z,44.26
2018-05-23T12:11:27.666Z,45.14
2018-05-23T12:12:27.865Z,45.62
2018-05-23T12:13:28.062Z,44.75
2018-05-23T12:14:28.258Z,44.03
2018-05-23T12:15:28.462Z,44.46
2018-05-23T12:16:28.656Z,44.78
2018-05-23T12:17:28.852Z,45.39
2018-05-23T12:18:29.044Z,45.38
2018-05-23T12:19:29.247Z,45.64
2018-05-23T12:20:29.445Z,45.69
2018-05-23T12:21:29.638Z,45.98
2018-05-23T12:22:29.835Z,46.09
2018-05-23T12:23:30.039Z,45.85
2018-05-23T12:24:30.230Z,45.96
2018-05-23T12:25:30.432Z,45.81
2018-05-23T12:26:30.631Z,45.93
2018-05-23T12:27:30.833Z,45.72
2018-05-23T12:28:31.035Z,46.30
2018-05-23T12:29:31.240Z,46.47
2018-05-23T12:30:31.450Z,45.95
2018-05-23T12:31:31.649Z,45.92
2018-05-23T12:32:31.851Z,46.33
2018-05-23T12:33:32.052Z,46.49
2018-05-23T12:34:32.251Z,46.53
2018-05-23T12:35:32.438Z,46.69
2018-05-23T12:36:33.483Z,46.46
2018-05-23T12:37:32.800Z,45.84
2018-05-23T12:38:33.000Z,45.42
2018-05-23T12:39:33.976Z,44.55
2018-05-23T12:40:33.419Z,44.70
2018-05-23T12:41:33.622Z,43.02
2018-05-23T12:42:48.474Z,42.50
2018-05-23T12:43:34.028Z,41.62
2018-05-23T12:44:34.229Z,40.67
2018-05-23T12:45:34.428Z,40.29
2018-05-23T12:46:34.624Z,39.75
2018-05-23T12:47:34.819Z,39.51
2018-05-23T12:48:35.006Z,39.29
2018-05-23T12:49:35.202Z,39.44
2018-05-23T12:50:35.389Z,38.98
2018-05-23T12:51:35.584Z,38.66
2018-05-23T12:52:35.771Z,38.15
2018-05-23T12:53:35.980Z,38.01
2018-05-23T12:54:36.902Z,37.94